createdAt,value
2022-11-16T00:01:19.397Z,66.02
2022-11-16T00:03:47.463Z,66.16
2022-11-16T00:06:15.124Z,65.60
2022-11-16T00:08:45.595Z,66.04
2022-11-16T00:11:15.863Z,66.09
2022-11-16T00:13:43.747Z,66.37
2022-11-16T00:16:18.172Z,66.21
2022-11-16T00:18:45.723Z,66.54
2022-11-16T00:21:13.246Z,66.40
2022-11-16T00:23:40.528Z,66.48
2022-11-16T00:26:09.382Z,66.21
2022-11-16T00:28:36.734Z,66.43
2022-11-16T00:31:06.542Z,65.60
2022-11-16T00:33:34.564Z,66.11
2022-11-16T00:36:03.266Z,66.72
2022-11-16T00:38:30.978Z,66.95
2022-11-16T00:40:58.856Z,66.58
2022-11-16T00:43:26.722Z,66.22
2022-11-16T00:45:54.105Z,66.61
2022-11-16T00:48:22.499Z,66.56
2022-11-16T00:50:49.844Z,66.66
2022-11-16T00:53:19.220Z,66.82
2022-11-16T00:55:47.563Z,66.97
2022-11-16T00:58:15.640Z,66.81
2022-11-16T01:00:43.862Z,66.93
2022-11-16T01:03:11.824Z,66.71
2022-11-16T01:05:39.422Z,66.82
2022-11-16T01:08:08.010Z,67.40
2022-11-16T01:10:39.351Z,67.13
2022-11-16T01:13:07.031Z,67.06
2022-11-16T01:15:34.347Z,66.94
2022-11-16T01:18:01.927Z,66.85
2022-11-16T01:20:29.622Z,67.23
2022-11-16T01:22:57.014Z,67.00
2022-11-16T01:25:24.580Z,67.17
2022-11-16T01:27:51.967Z,67.07
2022-11-16T01:30:19.732Z,67.18
2022-11-16T01:32:48.118Z,67.08
2022-11-16T01:35:17.510Z,67.12
2022-11-16T01:37:45.038Z,66.69
2022-11-16T01:40:14.055Z,67.17
2022-11-16T01:42:42.170Z,67.26
2022-11-16T01:45:38.007Z,67.09
2022-11-16T01:48:06.318Z,67.00
2022-11-16T01:50:34.541Z,66.89
2022-11-16T01:53:04.234Z,66.82
2022-11-16T01:55:33.862Z,66.66
2022-11-16T01:58:02.615Z,67.01
2022-11-16T02:00:30.625Z,66.63
2022-11-16T02:02:58.814Z,66.84
2022-11-16T02:05:33.583Z,67.42
2022-11-16T02:08:33.668Z,67.04
2022-11-16T02:11:11.046Z,66.74
2022-11-16T02:14:20.764Z,66.38
2022-11-16T02:17:12.478Z,66.97
2022-11-16T02:20:14.489Z,67.13
2022-11-16T02:22:57.584Z,67.40
2022-11-16T02:25:37.467Z,67.33
2022-11-16T02:28:29.132Z,66.81
2022-11-16T02:30:58.025Z,67.29
2022-11-16T02:33:30.906Z,66.92
2022-11-16T02:36:00.654Z,66.90
2022-11-16T02:38:31.001Z,67.27
2022-11-16T02:41:05.202Z,67.26
2022-11-16T02:43:37.818Z,66.75
2022-11-16T02:46:09.713Z,67.12
2022-11-16T02:48:40.919Z,67.27
2022-11-16T02:51:09.047Z,67.28
2022-11-16T02:53:51.425Z,67.15
2022-11-16T02:56:20.273Z,66.25
2022-11-16T02:58:47.988Z,66.31
2022-11-16T03:01:25.588Z,66.95
2022-11-16T03:03:58.910Z,67.22
2022-11-16T03:06:32.384Z,67.53
2022-11-16T03:09:12.190Z,67.13
2022-11-16T03:12:01.321Z,66.83
2022-11-16T03:14:44.837Z,66.82
2022-11-16T03:17:22.004Z,67.31
2022-11-16T03:19:57.726Z,67.13
2022-11-16T03:22:31.620Z,67.02
2022-11-16T03:24:59.218Z,66.69
2022-11-16T03:27:47.367Z,66.41
2022-11-16T03:30:23.563Z,67.12
2022-11-16T03:33:04.533Z,66.99
2022-11-16T03:36:00.066Z,66.87
2022-11-16T03:38:28.619Z,67.04
2022-11-16T03:41:00.410Z,66.81
2022-11-16T03:43:28.651Z,66.52
2022-11-16T03:45:56.767Z,66.83
2022-11-16T03:48:24.470Z,67.28
2022-11-16T03:50:52.273Z,67.19
2022-11-16T03:53:20.402Z,66.93
2022-11-16T03:55:49.915Z,66.54
2022-11-16T03:58:18.609Z,67.47
2022-11-16T04:00:46.500Z,67.91
2022-11-16T04:03:14.131Z,68.54
2022-11-16T04:06:00.155Z,68.41
2022-11-16T04:08:46.177Z,68.37
2022-11-16T04:11:33.647Z,68.07
2022-11-16T04:14:19.698Z,68.06
2022-11-16T04:17:05.537Z,67.57
2022-11-16T04:19:56.784Z,68.10
2022-11-16T04:22:52.829Z,67.65
2022-11-16T04:25:27.111Z,68.17
2022-11-16T04:28:13.278Z,67.95
2022-11-16T04:31:01.206Z,67.83
2022-11-16T04:33:48.130Z,68.18
2022-11-16T04:36:34.586Z,68.19
2022-11-16T04:39:02.118Z,68.41
2022-11-16T04:41:49.315Z,67.85
2022-11-16T04:44:17.133Z,67.90
2022-11-16T04:47:04.046Z,67.83
2022-11-16T04:49:31.584Z,68.26
2022-11-16T04:51:59.778Z,68.26
2022-11-16T04:54:28.171Z,67.89
2022-11-16T04:56:55.532Z,68.35
2022-11-16T04:59:23.736Z,68.18
2022-11-16T05:02:09.221Z,67.50
2022-11-16T05:04:39.626Z,68.15
2022-11-16T05:07:11.834Z,68.38
2022-11-16T05:09:43.028Z,68.41
2022-11-16T05:12:22.664Z,67.74
2022-11-16T05:14:51.661Z,67.93
2022-11-16T05:17:19.604Z,67.81
2022-11-16T05:20:06.855Z,67.96
2022-11-16T05:22:35.461Z,68.02
2022-11-16T05:25:04.398Z,67.90
2022-11-16T05:27:32.007Z,68.27
2022-11-16T05:29:59.902Z,68.29
2022-11-16T05:32:27.794Z,67.65
2022-11-16T05:34:55.484Z,67.98
2022-11-16T05:37:26.559Z,67.97
2022-11-16T05:39:54.839Z,68.35
2022-11-16T05:42:23.258Z,68.01
2022-11-16T05:44:50.721Z,67.87
2022-11-16T05:47:18.309Z,67.88
2022-11-16T05:49:45.975Z,68.08
2022-11-16T05:52:14.252Z,68.56
2022-11-16T05:54:42.046Z,68.75
2022-11-16T05:57:09.772Z,68.36
2022-11-16T05:59:37.441Z,68.54
2022-11-16T06:02:05.458Z,68.38
2022-11-16T06:04:33.825Z,68.50
2022-11-16T06:07:01.524Z,68.41
2022-11-16T06:09:29.147Z,67.86
2022-11-16T06:11:58.848Z,67.61
2022-11-16T06:14:26.150Z,67.82
2022-11-16T06:16:53.746Z,68.09
2022-11-16T06:19:21.390Z,68.32
2022-11-16T06:21:48.677Z,67.65
2022-11-16T06:24:16.973Z,67.75
2022-11-16T06:26:45.932Z,68.07
2022-11-16T06:29:14.116Z,67.99
2022-11-16T06:31:41.660Z,67.75
2022-11-16T06:34:09.451Z,67.93
2022-11-16T06:36:36.817Z,67.12
2022-11-16T06:39:04.607Z,67.42
2022-11-16T06:41:37.573Z,67.67
2022-11-16T06:44:08.261Z,67.96
2022-11-16T06:46:36.216Z,67.70
2022-11-16T06:49:03.718Z,67.29
2022-11-16T06:51:31.112Z,67.39
2022-11-16T06:53:59.153Z,67.68
2022-11-16T06:56:27.813Z,67.59
2022-11-16T06:58:57.024Z,68.47
2022-11-16T07:01:25.108Z,67.79
2022-11-16T07:03:54.347Z,67.96
2022-11-16T07:06:21.863Z,67.22
2022-11-16T07:08:49.809Z,67.08
2022-11-16T07:11:18.152Z,67.46
2022-11-16T07:13:45.524Z,67.64
2022-11-16T07:16:13.967Z,67.74
2022-11-16T07:18:42.159Z,67.60
2022-11-16T07:21:14.594Z,67.59
2022-11-16T07:23:42.892Z,67.47
2022-11-16T07:26:11.634Z,67.25
2022-11-16T07:28:44.888Z,67.56
2022-11-16T07:31:16.985Z,67.53
2022-11-16T07:33:44.390Z,68.69
2022-11-16T07:36:15.943Z,67.39
2022-11-16T07:38:44.017Z,67.78
2022-11-16T07:41:17.229Z,67.76
2022-11-16T07:43:51.538Z,67.59
2022-11-16T07:46:46.442Z,67.46
2022-11-16T07:49:15.268Z,67.12
2022-11-16T07:51:43.598Z,66.94
2022-11-16T07:54:13.179Z,68.65
2022-11-16T07:56:40.594Z,68.58
2022-11-16T07:59:08.530Z,68.24
2022-11-16T08:01:37.208Z,68.42
2022-11-16T08:04:04.998Z,68.46
2022-11-16T08:06:32.606Z,68.21
2022-11-16T08:09:00.737Z,68.14
2022-11-16T08:11:28.551Z,67.65
2022-11-16T08:13:56.361Z,68.46
2022-11-16T08:16:23.732Z,68.16
2022-11-16T08:18:51.733Z,67.73
2022-11-16T08:21:19.763Z,67.36
2022-11-16T08:23:47.161Z,67.25
2022-11-16T08:26:19.446Z,67.55
2022-11-16T08:28:50.915Z,67.00
2022-11-16T08:31:22.214Z,66.97
2022-11-16T08:33:50.402Z,67.27
2022-11-16T08:36:18.297Z,67.07
2022-11-16T08:38:47.258Z,66.47
2022-11-16T08:41:15.947Z,66.48
2022-11-16T08:43:44.605Z,66.63
2022-11-16T08:46:13.647Z,66.71
2022-11-16T08:48:41.583Z,66.55
2022-11-16T08:51:17.931Z,66.75
2022-11-16T08:53:48.095Z,66.77
2022-11-16T08:56:17.179Z,66.94
2022-11-16T08:58:46.814Z,66.66
2022-11-16T09:01:17.560Z,66.45
2022-11-16T09:03:45.345Z,66.31
2022-11-16T09:06:13.017Z,66.44
2022-11-16T09:08:42.385Z,66.80
2022-11-16T09:11:11.945Z,66.01
2022-11-16T09:13:39.566Z,66.12
2022-11-16T09:16:07.502Z,66.15
2022-11-16T09:18:35.685Z,66.08
2022-11-16T09:21:03.796Z,66.69
2022-11-16T09:23:31.754Z,66.72
2022-11-16T09:26:03.742Z,66.70
2022-11-16T09:28:31.798Z,66.77
2022-11-16T09:31:05.943Z,66.45
2022-11-16T09:33:34.358Z,67.37
2022-11-16T09:36:07.128Z,66.99
2022-11-16T09:39:03.330Z,66.80
2022-11-16T09:41:42.101Z,66.79
2022-11-16T09:44:20.230Z,66.58
2022-11-16T09:46:50.306Z,67.06
2022-11-16T09:49:26.396Z,67.02
2022-11-16T09:52:00.668Z,66.94
2022-11-16T09:54:30.703Z,67.28
2022-11-16T09:57:00.558Z,66.84
2022-11-16T09:59:33.958Z,66.55
2022-11-16T10:02:09.785Z,67.00
2022-11-16T10:04:52.509Z,66.46
2022-11-16T10:07:45.084Z,66.58
2022-11-16T10:10:18.121Z,66.73
2022-11-16T10:13:03.462Z,66.73
2022-11-16T10:15:49.121Z,66.38
2022-11-16T10:18:46.292Z,66.36
2022-11-16T10:21:37.188Z,66.38
2022-11-16T10:24:16.546Z,66.22
2022-11-16T10:27:03.259Z,66.77
2022-11-16T10:29:33.679Z,66.57
2022-11-16T10:32:28.015Z,66.41
2022-11-16T10:35:00.339Z,66.09
2022-11-16T10:37:29.316Z,66.37
2022-11-16T10:39:56.693Z,66.51
2022-11-16T10:42:36.921Z,66.61
2022-11-16T10:45:10.617Z,66.69
2022-11-16T10:47:46.668Z,66.82
2022-11-16T10:50:35.255Z,66.78
2022-11-16T10:53:02.564Z,66.67
2022-11-16T10:55:30.511Z,66.99
2022-11-16T10:58:02.811Z,66.83
2022-11-16T11:00:36.860Z,66.78
2022-11-16T11:03:04.255Z,66.74
2022-11-16T11:05:32.023Z,66.70
2022-11-16T11:08:02.236Z,66.98
2022-11-16T11:10:33.605Z,66.62
2022-11-16T11:13:21.404Z,66.61
2022-11-16T11:15:51.180Z,66.31
2022-11-16T11:18:20.194Z,65.84
2022-11-16T11:20:53.062Z,65.94
2022-11-16T11:23:23.014Z,66.15
2022-11-16T11:25:59.242Z,66.16
2022-11-16T11:28:35.291Z,67.20
2022-11-16T11:31:03.967Z,66.89
2022-11-16T11:33:37.800Z,66.96
2022-11-16T11:36:09.576Z,66.76
2022-11-16T11:38:56.544Z,66.79
2022-11-16T11:41:23.966Z,66.59
2022-11-16T11:44:06.064Z,66.48
2022-11-16T11:47:11.003Z,66.91
2022-11-16T11:49:33.293Z,66.54
2022-11-16T11:52:10.527Z,66.81
2022-11-16T11:54:45.673Z,67.28
2022-11-16T11:57:22.976Z,67.30
2022-11-16T11:59:53.118Z,67.28
2022-11-16T12:02:45.962Z,67.07
2022-11-16T12:05:45.702Z,66.93
2022-11-16T12:08:31.675Z,67.01
2022-11-16T12:11:04.270Z,66.82
2022-11-16T12:13:40.546Z,67.27
2022-11-16T12:16:45.711Z,66.84
2022-11-16T12:19:34.178Z,66.96
2022-11-16T12:22:23.334Z,67.34
2022-11-16T12:25:06.002Z,67.12
2022-11-16T12:27:42.945Z,67.37
2022-11-16T12:30:15.072Z,67.40
2022-11-16T12:32:54.751Z,67.08
2022-11-16T12:35:27.864Z,66.72
2022-11-16T12:38:19.467Z,67.31
2022-11-16T12:41:04.454Z,67.15
2022-11-16T12:43:47.246Z,66.54
2022-11-16T12:46:24.318Z,66.48
2022-11-16T12:49:06.899Z,66.68
2022-11-16T12:51:55.994Z,66.76
2022-11-16T12:54:52.241Z,66.75
2022-11-16T12:57:39.286Z,67.69
2022-11-16T13:00:10.651Z,67.29
2022-11-16T13:02:59.982Z,67.34
2022-11-16T13:05:42.664Z,67.72
2022-11-16T13:08:28.264Z,67.16
2022-11-16T13:11:08.383Z,67.08
2022-11-16T13:13:37.295Z,67.29
2022-11-16T13:16:05.570Z,67.12
2022-11-16T13:18:35.751Z,66.82
2022-11-16T13:21:11.297Z,66.83
2022-11-16T13:23:47.875Z,66.67
2022-11-16T13:26:51.976Z,66.79
2022-11-16T13:29:51.090Z,66.90
2022-11-16T13:32:24.159Z,66.92
2022-11-16T13:34:52.050Z,67.04
2022-11-16T13:37:34.269Z,67.44
2022-11-16T13:40:01.671Z,67.49
2022-11-16T13:42:30.153Z,67.49
2022-11-16T13:45:09.521Z,67.45
2022-11-16T13:47:37.270Z,67.38
2022-11-16T13:50:06.922Z,67.84
2022-11-16T13:53:23.492Z,67.34
2022-11-16T13:55:32.556Z,67.50
2022-11-16T13:58:01.550Z,67.86
2022-11-16T14:00:35.383Z,67.08
2022-11-16T14:03:12.126Z,67.04
2022-11-16T14:05:44.840Z,66.67
2022-11-16T14:08:24.238Z,67.48
2022-11-16T14:10:51.633Z,67.12
2022-11-16T14:13:39.621Z,67.15
2022-11-16T14:16:22.419Z,67.03
2022-11-16T14:18:56.529Z,67.03
2022-11-16T14:21:39.187Z,66.88
2022-11-16T14:24:25.792Z,67.38
2022-11-16T14:27:30.654Z,67.55
2022-11-16T14:30:09.176Z,67.39
2022-11-16T14:32:44.393Z,67.05
2022-11-16T14:35:32.653Z,67.51
2022-11-16T14:38:06.762Z,67.30
2022-11-16T14:40:56.257Z,67.97
2022-11-16T14:43:34.717Z,67.89
2022-11-16T14:46:05.190Z,67.83
2022-11-16T14:48:32.732Z,67.91
2022-11-16T14:51:13.305Z,67.70
2022-11-16T14:53:46.446Z,67.41
2022-11-16T14:56:15.392Z,67.21
2022-11-16T14:58:56.705Z,67.00
2022-11-16T15:01:31.152Z,67.07
2022-11-16T15:04:02.474Z,67.17
2022-11-16T15:06:39.142Z,66.91
2022-11-16T15:09:06.782Z,67.39
2022-11-16T15:11:56.815Z,66.74
2022-11-16T15:14:27.295Z,66.68
2022-11-16T15:16:56.291Z,66.67
2022-11-16T15:19:24.498Z,66.62
2022-11-16T15:21:57.102Z,66.61
2022-11-16T15:24:32.641Z,66.22
2022-11-16T15:27:28.858Z,66.75
2022-11-16T15:29:56.462Z,66.89
2022-11-16T15:32:23.814Z,66.77
2022-11-16T15:34:53.583Z,66.74
2022-11-16T15:37:31.331Z,66.80
2022-11-16T15:39:59.055Z,66.45
2022-11-16T15:42:27.978Z,66.20
2022-11-16T15:44:55.838Z,66.26
2022-11-16T15:47:23.309Z,66.51
2022-11-16T15:49:52.946Z,65.85
2022-11-16T15:52:43.442Z,65.78
2022-11-16T15:55:34.645Z,66.14
2022-11-16T15:58:05.383Z,67.00
2022-11-16T16:00:35.360Z,67.04
2022-11-16T16:03:16.099Z,67.16
2022-11-16T16:05:43.402Z,66.93
2022-11-16T16:08:36.804Z,66.63
2022-11-16T16:11:33.027Z,66.56
2022-11-16T16:14:02.864Z,66.51
2022-11-16T16:16:37.758Z,65.85
2022-11-16T16:19:09.905Z,66.24
2022-11-16T16:21:43.182Z,66.34
2022-11-16T16:24:33.577Z,65.90
2022-11-16T16:27:00.898Z,66.29
2022-11-16T16:29:28.568Z,66.06
2022-11-16T16:31:56.143Z,65.89
2022-11-16T16:34:23.441Z,66.32
2022-11-16T16:36:51.005Z,66.28
2022-11-16T16:39:18.296Z,66.20
2022-11-16T16:41:45.852Z,66.25
2022-11-16T16:44:15.167Z,66.06
2022-11-16T16:46:42.464Z,66.45
2022-11-16T16:49:10.731Z,66.78
2022-11-16T16:51:38.282Z,66.49
2022-11-16T16:54:05.678Z,66.48
2022-11-16T16:56:32.962Z,66.80
2022-11-16T16:59:02.780Z,66.56
2022-11-16T17:01:31.790Z,66.05
2022-11-16T17:03:59.125Z,65.79
2022-11-16T17:06:26.742Z,66.06
2022-11-16T17:08:54.010Z,65.97
2022-11-16T17:11:21.296Z,67.27
2022-11-16T17:13:48.853Z,66.59
2022-11-16T17:16:16.326Z,66.08
2022-11-16T17:18:44.718Z,66.20
2022-11-16T17:21:12.918Z,66.16
2022-11-16T17:23:40.382Z,66.78
2022-11-16T17:26:08.582Z,66.40
2022-11-16T17:28:36.140Z,66.96
2022-11-16T17:31:06.040Z,66.89
2022-11-16T17:33:37.824Z,66.74
2022-11-16T17:36:07.304Z,66.50
2022-11-16T17:38:34.862Z,66.97
2022-11-16T17:41:04.000Z,66.73
2022-11-16T17:43:31.772Z,67.09
2022-11-16T17:46:07.370Z,67.42
2022-11-16T17:48:35.469Z,67.15
2022-11-16T17:51:02.802Z,67.31
2022-11-16T17:53:32.879Z,67.09
2022-11-16T17:56:01.096Z,66.87
2022-11-16T17:58:29.191Z,66.70
2022-11-16T18:00:56.930Z,67.00
2022-11-16T18:03:24.549Z,66.95
2022-11-16T18:05:52.137Z,67.08
2022-11-16T18:08:19.416Z,67.07
2022-11-16T18:10:47.025Z,66.75
2022-11-16T18:13:14.308Z,66.80
2022-11-16T18:15:42.670Z,66.85
2022-11-16T18:18:10.367Z,67.73
2022-11-16T18:20:37.874Z,67.66
2022-11-16T18:23:05.196Z,67.85
2022-11-16T18:25:35.019Z,67.36
2022-11-16T18:28:02.521Z,67.71
2022-11-16T18:30:29.816Z,67.79
2022-11-16T18:32:57.447Z,67.86
2022-11-16T18:35:24.845Z,68.77
2022-11-16T18:37:52.174Z,67.94
2022-11-16T18:40:19.736Z,68.30
2022-11-16T18:42:47.507Z,67.91
2022-11-16T18:45:14.795Z,67.89
2022-11-16T18:47:42.333Z,67.97
2022-11-16T18:50:18.224Z,67.89
2022-11-16T18:52:47.917Z,67.64
2022-11-16T18:55:15.245Z,68.08
2022-11-16T18:57:42.549Z,68.20
2022-11-16T19:00:10.687Z,68.92
2022-11-16T19:02:38.887Z,69.60
2022-11-16T19:05:07.467Z,69.08
2022-11-16T19:07:35.052Z,68.90
2022-11-16T19:10:02.578Z,68.77
2022-11-16T19:12:29.943Z,68.39
2022-11-16T19:14:57.622Z,68.40
2022-11-16T19:17:25.178Z,68.63
2022-11-16T19:19:52.681Z,69.34
2022-11-16T19:22:20.534Z,68.31
2022-11-16T19:24:47.829Z,68.09
2022-11-16T19:27:16.620Z,68.01
2022-11-16T19:29:44.219Z,67.92
2022-11-16T19:32:13.727Z,68.02
2022-11-16T19:34:41.050Z,68.80
2022-11-16T19:37:08.761Z,68.49
2022-11-16T19:39:36.071Z,68.31
2022-11-16T19:42:03.473Z,68.38
2022-11-16T19:44:31.038Z,68.72
2022-11-16T19:46:59.278Z,68.23
2022-11-16T19:49:26.583Z,68.96
2022-11-16T19:51:54.201Z,69.01
2022-11-16T19:54:21.496Z,69.00
2022-11-16T19:56:54.691Z,69.27
2022-11-16T19:59:22.694Z,68.87
2022-11-16T20:01:49.979Z,68.19
2022-11-16T20:04:17.520Z,67.91
2022-11-16T20:06:44.903Z,68.04
2022-11-16T20:09:12.480Z,68.13
2022-11-16T20:11:41.134Z,67.76
2022-11-16T20:14:10.511Z,67.39
2022-11-16T20:16:40.432Z,68.02
2022-11-16T20:19:08.880Z,68.01
2022-11-16T20:21:38.324Z,68.28
2022-11-16T20:24:08.583Z,68.26
2022-11-16T20:26:40.155Z,68.22
2022-11-16T20:29:07.450Z,67.79
2022-11-16T20:31:34.758Z,73.37
2022-11-16T20:34:05.006Z,69.75
2022-11-16T20:36:33.200Z,68.27
2022-11-16T20:39:00.948Z,68.29
2022-11-16T20:41:33.075Z,68.40
2022-11-16T20:44:01.783Z,68.16
2022-11-16T20:46:31.341Z,67.75
2022-11-16T20:49:00.839Z,67.32
2022-11-16T20:51:28.732Z,67.54
2022-11-16T20:53:56.295Z,67.30
2022-11-16T20:56:23.779Z,67.36
2022-11-16T20:58:51.149Z,67.85
2022-11-16T21:01:28.438Z,68.17
2022-11-16T21:03:56.571Z,67.88
2022-11-16T21:06:24.459Z,67.82
2022-11-16T21:08:52.080Z,68.10
2022-11-16T21:11:25.084Z,68.36
2022-11-16T21:14:11.480Z,68.96
2022-11-16T21:16:39.043Z,69.56
2022-11-16T21:19:07.048Z,69.23
2022-11-16T21:21:34.633Z,68.85
2022-11-16T21:24:01.950Z,69.49
2022-11-16T21:26:32.967Z,69.19
2022-11-16T21:29:01.431Z,69.70
2022-11-16T21:31:30.929Z,69.18
2022-11-16T21:34:00.715Z,68.93
2022-11-16T21:36:29.852Z,68.26
2022-11-16T21:38:58.068Z,68.62
2022-11-16T21:41:26.188Z,67.61
2022-11-16T21:43:53.662Z,68.13
2022-11-16T21:46:23.114Z,67.21
2022-11-16T21:48:51.039Z,67.56
2022-11-16T21:51:20.881Z,67.56
2022-11-16T21:53:48.440Z,67.57
2022-11-16T21:56:19.234Z,68.91
2022-11-16T21:58:46.958Z,68.20
2022-11-16T22:01:16.049Z,67.90
2022-11-16T22:03:44.792Z,67.94
2022-11-16T22:06:34.619Z,67.27
2022-11-16T22:09:02.238Z,67.69
2022-11-16T22:11:29.533Z,69.30
2022-11-16T22:13:56.819Z,68.57
2022-11-16T22:16:24.372Z,68.59
2022-11-16T22:18:51.668Z,68.39
2022-11-16T22:21:18.948Z,69.51
2022-11-16T22:23:46.593Z,69.13
2022-11-16T22:26:14.528Z,68.43
2022-11-16T22:28:42.114Z,68.86
2022-11-16T22:31:14.531Z,68.97
2022-11-16T22:33:42.209Z,69.04
2022-11-16T22:36:10.549Z,68.66
2022-11-16T22:38:38.038Z,68.06
2022-11-16T22:41:05.475Z,69.22
2022-11-16T22:43:33.497Z,68.42
2022-11-16T22:46:02.733Z,67.99
2022-11-16T22:48:35.465Z,67.38
2022-11-16T22:51:05.052Z,67.45
2022-11-16T22:53:32.694Z,67.27
2022-11-16T22:56:18.118Z,67.16
2022-11-16T22:58:45.678Z,67.33
2022-11-16T23:01:13.043Z,67.02
2022-11-16T23:03:40.824Z,67.06
2022-11-16T23:06:08.619Z,66.55
2022-11-16T23:08:37.009Z,66.61
2022-11-16T23:11:28.859Z,66.04
2022-11-16T23:14:15.246Z,66.70
2022-11-16T23:16:44.008Z,66.66
2022-11-16T23:19:32.252Z,66.64
2022-11-16T23:22:18.303Z,66.90
2022-11-16T23:25:04.344Z,67.07
2022-11-16T23:27:39.614Z,67.66
2022-11-16T23:30:12.504Z,67.17
2022-11-16T23:32:41.559Z,67.83
2022-11-16T23:35:10.610Z,67.49
2022-11-16T23:37:57.117Z,67.85
2022-11-16T23:40:29.859Z,67.86
2022-11-16T23:43:15.750Z,68.17
2022-11-16T23:45:44.048Z,68.30
2022-11-16T23:48:15.090Z,68.21
2022-11-16T23:50:43.404Z,67.37
2022-11-16T23:53:11.477Z,67.85
2022-11-16T23:55:39.709Z,67.66
2022-11-16T23:58:12.241Z,67.88
